createdAt,value
2019-04-26T00:02:25.189Z,7.17
2019-04-26T00:07:30.810Z,2.03
2019-04-26T00:12:45.120Z,5.07
2019-04-26T00:17:54.734Z,7.95
2019-04-26T00:23:00.241Z,3.67
2019-04-26T00:28:05.686Z,3.60
2019-04-26T00:33:12.398Z,4.03
2019-04-26T00:38:18.292Z,3.23
2019-04-26T00:43:24.972Z,4.37
2019-04-26T00:48:32.577Z,3.13
2019-04-26T00:53:39.694Z,4.17
2019-04-26T00:58:45.341Z,3.93
2019-04-26T01:03:50.924Z,5.00
2019-04-26T01:08:56.233Z,4.63
2019-04-26T01:14:01.714Z,4.37
2019-04-26T01:19:08.900Z,3.10
2019-04-26T01:24:18.253Z,3.37
2019-04-26T01:29:26.382Z,5.37
2019-04-26T01:34:33.613Z,4.03
2019-04-26T01:39:41.782Z,7.13
2019-04-26T01:45:01.203Z,3.83
2019-04-26T01:50:07.761Z,5.50
2019-04-26T01:55:13.851Z,4.23
2019-04-26T02:00:28.073Z,6.37
2019-04-26T02:05:33.691Z,3.17
2019-04-26T02:10:39.302Z,7.97
2019-04-26T02:15:44.742Z,5.40
2019-04-26T02:20:57.542Z,5.20
2019-04-26T02:26:12.001Z,7.27
2019-04-26T02:31:17.728Z,7.70
2019-04-26T02:36:25.362Z,5.60
2019-04-26T02:41:33.493Z,2.53
2019-04-26T02:46:50.822Z,3.87
2019-04-26T02:52:03.924Z,4.53
2019-04-26T02:57:09.502Z,4.20
2019-04-26T03:02:21.913Z,3.90
2019-04-26T03:07:44.213Z,5.53
2019-04-26T03:12:52.850Z,5.75
2019-04-26T03:18:11.053Z,3.30
2019-04-26T03:23:41.811Z,5.13
2019-04-26T03:28:44.483Z,2.40
2019-04-26T03:34:01.788Z,4.83
2019-04-26T03:39:23.032Z,2.80
2019-04-26T03:44:38.996Z,4.63
2019-04-26T03:49:57.912Z,3.43
2019-04-26T03:55:08.743Z,6.20
2019-04-26T04:00:26.203Z,5.70
2019-04-26T04:05:44.196Z,3.13
2019-04-26T04:10:55.841Z,8.63
2019-04-26T04:16:01.965Z,6.43
2019-04-26T04:21:22.433Z,5.63
2019-04-26T04:26:39.603Z,8.37
2019-04-26T04:31:49.344Z,4.13
2019-04-26T04:36:57.873Z,5.00
2019-04-26T04:42:22.444Z,4.90
2019-04-26T04:47:37.164Z,5.20
2019-04-26T04:52:51.765Z,4.43
2019-04-26T04:58:06.093Z,5.93
2019-04-26T05:03:28.623Z,3.07
2019-04-26T05:08:51.182Z,6.47
2019-04-26T05:14:04.423Z,4.93
2019-04-26T05:19:27.097Z,4.10
2019-04-26T05:24:40.461Z,6.27
2019-04-26T05:29:56.155Z,6.17
2019-04-26T05:35:12.518Z,5.63
2019-04-26T05:40:35.273Z,6.03
2019-04-26T05:46:04.153Z,5.87
2019-04-26T05:51:34.236Z,7.57
2019-04-26T05:57:02.715Z,10.60
2019-04-26T06:02:32.041Z,13.47
2019-04-26T06:07:58.528Z,10.23
2019-04-26T06:13:28.003Z,5.27
2019-04-26T06:18:47.873Z,6.83
2019-04-26T06:24:07.052Z,5.92
2019-04-26T06:29:20.230Z,7.97
2019-04-26T06:34:39.344Z,7.90
2019-04-26T06:40:02.853Z,5.87
2019-04-26T06:45:30.983Z,8.27
2019-04-26T06:50:44.372Z,4.90
2019-04-26T06:56:03.014Z,5.20
2019-04-26T07:01:25.946Z,10.33
2019-04-26T07:06:38.810Z,7.57
2019-04-26T07:12:05.774Z,7.28
2019-04-26T07:17:17.672Z,4.43
2019-04-26T07:22:41.370Z,7.63
2019-04-26T07:28:03.850Z,7.97
2019-04-26T07:33:19.978Z,6.07
2019-04-26T07:38:54.636Z,8.43
2019-04-26T07:44:20.901Z,6.13
2019-04-26T07:49:53.552Z,11.13
2019-04-26T07:55:26.433Z,6.80
2019-04-26T08:00:44.990Z,11.47
2019-04-26T08:06:01.581Z,5.95
2019-04-26T08:11:12.951Z,8.77
2019-04-26T08:16:30.540Z,10.63
2019-04-26T08:21:42.609Z,10.27
2019-04-26T08:26:55.084Z,7.77
2019-04-26T08:32:05.413Z,10.57
2019-04-26T08:37:19.669Z,9.93
2019-04-26T08:42:30.533Z,5.87
2019-04-26T08:47:45.977Z,7.15
2019-04-26T08:52:57.876Z,8.53
2019-04-26T08:58:08.160Z,9.47
2019-04-26T09:03:25.678Z,12.77
2019-04-26T09:08:39.163Z,8.60
2019-04-26T09:13:49.871Z,10.80
2019-04-26T09:18:59.439Z,10.47
2019-04-26T09:24:10.190Z,10.68
2019-04-26T09:29:30.527Z,11.43
2019-04-26T09:34:36.623Z,11.77
2019-04-26T09:39:43.411Z,10.78
2019-04-26T09:44:57.037Z,7.97
2019-04-26T09:50:11.346Z,9.73
2019-04-26T09:55:17.803Z,13.37
2019-04-26T10:00:27.851Z,9.97
2019-04-26T10:05:34.030Z,12.57
2019-04-26T10:10:39.772Z,15.63
2019-04-26T10:15:58.057Z,20.10
2019-04-26T10:21:01.475Z,12.63
2019-04-26T10:26:07.296Z,11.77
2019-04-26T10:31:13.537Z,15.57
2019-04-26T10:36:21.215Z,12.27
2019-04-26T10:41:33.663Z,20.50
2019-04-26T10:46:34.394Z,18.77
2019-04-26T10:51:45.330Z,15.67
2019-04-26T10:56:55.250Z,18.50
2019-04-26T11:02:00.781Z,18.17
2019-04-26T11:07:06.553Z,15.13
2019-04-26T11:12:16.248Z,23.03
2019-04-26T11:17:21.920Z,19.77
2019-04-26T11:22:29.354Z,11.60
2019-04-26T11:27:34.435Z,10.10
2019-04-26T11:32:40.220Z,12.10
2019-04-26T11:37:50.504Z,12.03
2019-04-26T11:42:54.141Z,13.60
2019-04-26T11:47:59.655Z,11.23
2019-04-26T11:53:06.142Z,18.93
2019-04-26T11:58:12.571Z,17.80
2019-04-26T12:03:21.151Z,13.07
2019-04-26T12:08:32.502Z,12.93
2019-04-26T12:13:38.121Z,16.73
2019-04-26T12:18:44.093Z,11.90
2019-04-26T12:23:51.278Z,11.93
2019-04-26T12:28:58.469Z,10.83
2019-04-26T12:34:04.121Z,14.33
2019-04-26T12:39:11.864Z,11.20
2019-04-26T12:44:17.384Z,10.93
2019-04-26T12:49:24.271Z,9.77
2019-04-26T12:54:30.374Z,13.27
2019-04-26T12:59:43.904Z,9.40
2019-04-26T13:04:44.528Z,13.33
2019-04-26T13:10:01.016Z,14.03
2019-04-26T13:15:32.430Z,14.20
2019-04-26T13:20:39.183Z,10.80
2019-04-26T13:25:44.781Z,11.17
2019-04-26T13:30:50.297Z,14.93
2019-04-26T13:36:02.855Z,9.43
2019-04-26T13:41:04.629Z,12.53
2019-04-26T13:46:19.003Z,9.83
2019-04-26T13:51:25.715Z,19.17
2019-04-26T13:56:32.099Z,13.10
2019-04-26T14:01:38.344Z,17.27
2019-04-26T14:06:43.836Z,15.88
2019-04-26T14:11:49.603Z,10.30
2019-04-26T14:16:55.764Z,17.23
2019-04-26T14:22:03.209Z,20.07
2019-04-26T14:27:15.300Z,14.50
2019-04-26T14:32:23.382Z,17.67
2019-04-26T14:37:29.524Z,13.03
2019-04-26T14:42:42.193Z,22.00
2019-04-26T14:47:47.654Z,14.15
2019-04-26T14:52:49.796Z,20.85
2019-04-26T14:57:56.864Z,20.00
2019-04-26T15:03:12.301Z,15.87
2019-04-26T15:08:18.021Z,16.30
2019-04-26T15:13:23.705Z,14.20
2019-04-26T15:18:33.348Z,11.93
2019-04-26T15:23:37.169Z,12.03
2019-04-26T15:28:43.679Z,13.17
2019-04-26T15:33:50.179Z,10.05
2019-04-26T15:38:56.475Z,9.40
2019-04-26T15:44:11.363Z,8.38
2019-04-26T15:49:29.796Z,6.03
2019-04-26T15:54:34.823Z,7.47
2019-04-26T15:59:40.264Z,6.57
2019-04-26T16:04:47.444Z,4.80
2019-04-26T16:09:53.854Z,3.90
2019-04-26T16:14:59.898Z,4.80
2019-04-26T16:20:07.321Z,3.83
2019-04-26T16:25:12.982Z,3.33
2019-04-26T16:30:28.401Z,4.03
2019-04-26T16:35:35.910Z,4.90
2019-04-26T16:40:47.562Z,3.37
2019-04-26T16:45:48.805Z,3.87
2019-04-26T16:50:54.512Z,3.27
2019-04-26T16:56:00.073Z,2.87
2019-04-26T17:01:10.123Z,1.63
2019-04-26T17:06:14.567Z,2.93
2019-04-26T17:11:20.445Z,2.87
2019-04-26T17:16:29.607Z,5.57
2019-04-26T17:21:38.159Z,3.73
2019-04-26T17:26:50.127Z,7.12
2019-04-26T17:31:55.813Z,14.00
2019-04-26T17:37:09.382Z,13.98
2019-04-26T17:42:10.955Z,23.47
2019-04-26T17:47:16.445Z,27.87
2019-04-26T17:52:25.016Z,26.23
2019-04-26T17:57:34.712Z,31.27
2019-04-26T18:02:42.168Z,32.77
2019-04-26T18:07:56.256Z,29.05
2019-04-26T18:12:54.118Z,47.20
2019-04-26T18:18:09.703Z,33.03
2019-04-26T18:23:18.574Z,28.47
2019-04-26T18:28:25.089Z,32.43
2019-04-26T18:33:32.877Z,31.10
2019-04-26T18:38:38.341Z,26.67
2019-04-26T18:43:43.743Z,27.87
2019-04-26T18:48:49.238Z,26.70
2019-04-26T18:54:05.026Z,36.70
2019-04-26T18:59:13.488Z,33.53
2019-04-26T19:04:19.025Z,27.00
2019-04-26T19:09:28.196Z,24.60
2019-04-26T19:14:49.586Z,31.12
2019-04-26T19:20:03.136Z,21.10
2019-04-26T19:25:18.937Z,39.13
2019-04-26T19:30:17.169Z,19.97
2019-04-26T19:35:22.890Z,20.87
2019-04-26T19:40:28.458Z,24.53
2019-04-26T19:45:46.137Z,19.90
2019-04-26T19:50:57.244Z,25.43
2019-04-26T19:56:11.167Z,28.00
2019-04-26T20:01:20.733Z,18.43
2019-04-26T20:06:26.718Z,24.93
2019-04-26T20:11:31.904Z,22.60
2019-04-26T20:16:40.751Z,24.95
2019-04-26T20:21:49.625Z,30.10
2019-04-26T20:26:54.381Z,23.73
2019-04-26T20:32:07.481Z,20.63
2019-04-26T20:37:16.159Z,25.50
2019-04-26T20:42:22.346Z,16.80
2019-04-26T20:47:27.996Z,18.70
2019-04-26T20:52:33.735Z,13.20
2019-04-26T20:57:42.057Z,22.03
2019-04-26T21:02:46.595Z,22.82
2019-04-26T21:07:52.403Z,26.68
2019-04-26T21:12:57.893Z,17.77
2019-04-26T21:18:04.246Z,19.07
2019-04-26T21:23:10.294Z,14.50
2019-04-26T21:28:29.072Z,18.40
2019-04-26T21:33:42.938Z,17.40
2019-04-26T21:38:53.014Z,17.50
2019-04-26T21:43:59.061Z,24.07
2019-04-26T21:49:04.524Z,23.90
2019-04-26T21:54:10.257Z,33.03
2019-04-26T21:59:16.055Z,19.63
2019-04-26T22:04:22.770Z,15.50
2019-04-26T22:09:48.238Z,15.67
2019-04-26T22:15:03.487Z,22.03
2019-04-26T22:20:19.156Z,17.03
2019-04-26T22:25:26.343Z,22.77
2019-04-26T22:30:33.132Z,24.13
2019-04-26T22:35:38.821Z,19.50
2019-04-26T22:40:44.221Z,22.20
2019-04-26T22:45:54.223Z,19.35
2019-04-26T22:50:59.897Z,19.77
2019-04-26T22:56:05.634Z,16.20
2019-04-26T23:01:11.337Z,20.53
2019-04-26T23:06:17.097Z,17.73
2019-04-26T23:11:23.165Z,13.03
2019-04-26T23:16:44.324Z,18.73
2019-04-26T23:21:52.870Z,21.00
2019-04-26T23:26:55.562Z,20.10
2019-04-26T23:32:01.063Z,20.87
2019-04-26T23:37:06.583Z,20.33
2019-04-26T23:42:12.218Z,18.93
2019-04-26T23:47:23.004Z,21.40
2019-04-26T23:52:25.968Z,23.53
2019-04-26T23:57:34.734Z,18.80
